Aeroboteco Virtual Airlines! Uma nuvem a frente.



 INFORMAÇÕES METEOROLÓGICAS
METAR FOR SBRJ
ADDS - METARS form results

(2059 UTC 17 June 2021)
Data provider http://aviationweather.gov/metar/data/
 
METAR text: SBRJ 172010Z 13008KT 6000 FEW010 BKN015 OVC025 18/17 Q1020
Conditions at: SBRJ (SANTOS DUMONT/RI, BR) observed 2010 UTC 17 June 2021
Temperature: 18.0°C (64°F)
Dewpoint: 17.0°C (63°F) [RH = 94%]
Pressure (altimeter): 30.12 inches Hg (1020.0 mb)
Winds: from the SE (130 degrees) at 9 MPH (8 knots; 4.1 m/s)
Visibility: 4 miles ( 6 km)
Ceiling: 1500 feet AGL
Clouds: few clouds at 1000 feet AGL
broken clouds at 1500 feet AGL
overcast cloud deck at 2500 feet AGL
Weather: no significant weather observed at this time

METAR text: SBRJ 172000Z 14010KT 6000 BKN010 OVC025 18/17 Q1020
Conditions at: SBRJ (SANTOS DUMONT/RI, BR) observed 2000 UTC 17 June 2021
Temperature: 18.0°C (64°F)
Dewpoint: 17.0°C (63°F) [RH = 94%]
Pressure (altimeter): 30.12 inches Hg (1020.0 mb)
Winds: from the SE (140 degrees) at 12 MPH (10 knots; 5.1 m/s)
Visibility: 4 miles ( 6 km)
Ceiling: 1000 feet AGL
Clouds: broken clouds at 1000 feet AGL
overcast cloud deck at 2500 feet AGL
Weather: no significant weather observed at this time

Forecast for: SBRJ (SANTOS DUMONT/RI, BR)
Text: TAF SBRJ 171500Z 1718/1806 21005KT 7000 BKN020 TX23/1719Z TN19/1806Z
Forecast period: 1800 UTC 17 June 2021 to 0000 UTC 18 June 2021
Forecast type: FROM: standard forecast or significant change
Winds: from the SSW (210 degrees) at 6 MPH (5 knots; 2.6 m/s)
Visibility: 4 miles (7 km)
Ceiling: 2000 feet AGL
Clouds: broken clouds at 2000 feet AGL
Weather: no significant weather forecast for this period
Text: BECMG 1800/1802 25005KT BKN030 RMK PGY
Forecast period: 0000 to 0600 UTC 18 June 2021
Forecast type: BECOMING: Conditions expected to become as follows by 0200 UTC 18 June 2021
Winds: from the WSW (250 degrees) at 6 MPH (5 knots; 2.6 m/s)
Visibility: 4 miles (7 km)
Ceiling: 3000 feet AGL
Clouds: broken clouds at 3000 feet AGL
Weather: no significant weather forecast for this period

 MAPA DO AEROPORTO

 INFORMAÇÕES DA PISTA
Pista 02L Tamanho da pista 4134 ft Largura da pista 98 ft
Elevação da pista 0 ft Ranhura da pista 0 ft Proa da pista 0
Pista 20R Tamanho da pista 4134 ft Largura da pista 98 ft
Elevação da pista 0 ft Ranhura da pista 0 ft Proa da pista 0
Pista 02R Tamanho da pista 4341 ft Largura da pista 138 ft
Elevação da pista 0 ft Ranhura da pista 0 ft Proa da pista 0
Pista 20L Tamanho da pista 4341 ft Largura da pista 138 ft
Elevação da pista 0 ft Ranhura da pista 0 ft Proa da pista 0

 FREQUÊNCIAS DO AEROPORTO
Tipo APP Nome RIO CON Frequência 119.35 MHZ
Tipo ATIS Nome ATIS Frequência 132.65 MHZ
Tipo CLD Nome TFC Frequência 121.05 MHZ
Tipo GND Nome GND Frequência 121.7 MHZ
Tipo TWR Nome RIO TWR Frequência 118.7 MHZ

 AUXÍLIOS DE NAVEGAÇÃO PRÓXIMOS AO AEROPORTO
Tipo NDB Nome Paiol Frequência 415 KHZ